createdAt,value
2019-04-10T00:00:31.835Z,17.00
2019-04-10T00:03:04.111Z,18.73
2019-04-10T00:05:36.183Z,18.03
2019-04-10T00:08:08.843Z,14.97
2019-04-10T00:10:41.747Z,15.93
2019-04-10T00:13:14.211Z,15.40
2019-04-10T00:15:46.451Z,15.27
2019-04-10T00:18:18.003Z,15.43
2019-04-10T00:20:49.423Z,15.20
2019-04-10T00:23:20.623Z,15.47
2019-04-10T00:25:53.043Z,16.33
2019-04-10T00:28:24.196Z,15.57
2019-04-10T00:30:56.185Z,15.83
2019-04-10T00:33:27.719Z,13.50
2019-04-10T00:35:59.879Z,13.90
2019-04-10T00:38:31.606Z,14.63
2019-04-10T00:41:03.815Z,15.70
2019-04-10T00:43:35.444Z,12.97
2019-04-10T00:46:06.662Z,13.03
2019-04-10T00:48:37.684Z,14.23
2019-04-10T00:51:08.915Z,13.30
2019-04-10T00:53:41.257Z,13.07
2019-04-10T00:56:12.930Z,12.87
2019-04-10T00:58:44.257Z,13.17
2019-04-10T01:01:16.422Z,13.83
2019-04-10T01:03:48.967Z,13.00
2019-04-10T01:06:20.692Z,14.57
2019-04-10T01:08:51.829Z,14.10
2019-04-10T01:11:25.214Z,13.90
2019-04-10T01:13:57.064Z,20.57
2019-04-10T01:16:28.239Z,16.90
2019-04-10T01:19:01.636Z,13.17
2019-04-10T01:21:32.945Z,13.17
2019-04-10T01:24:06.229Z,12.53
2019-04-10T01:26:39.149Z,12.17
2019-04-10T01:29:11.305Z,11.50
2019-04-10T01:31:43.430Z,13.17
2019-04-10T01:34:15.145Z,10.87
2019-04-10T01:36:46.532Z,11.97
2019-04-10T01:39:20.086Z,12.90
2019-04-10T01:41:52.180Z,12.00
2019-04-10T01:44:24.634Z,11.20
2019-04-10T01:46:55.638Z,11.70
2019-04-10T01:49:27.364Z,12.07
2019-04-10T01:51:59.591Z,12.33
2019-04-10T01:54:31.232Z,11.33
2019-04-10T01:57:02.534Z,12.17
2019-04-10T01:59:36.155Z,11.57
2019-04-10T02:02:09.630Z,10.40
2019-04-10T02:04:41.731Z,11.40
2019-04-10T02:07:13.892Z,12.03
2019-04-10T02:09:45.870Z,10.93
2019-04-10T02:12:16.866Z,8.50
2019-04-10T02:14:48.848Z,11.20
2019-04-10T02:17:20.447Z,10.40
2019-04-10T02:19:51.415Z,10.83
2019-04-10T02:22:22.619Z,9.73
2019-04-10T02:24:53.731Z,9.63
2019-04-10T02:27:24.808Z,9.63
2019-04-10T02:29:55.917Z,9.30
2019-04-10T02:32:28.340Z,9.93
2019-04-10T02:35:01.094Z,9.93
2019-04-10T02:37:33.173Z,9.50
2019-04-10T02:40:09.788Z,9.20
2019-04-10T02:42:41.557Z,10.87
2019-04-10T02:45:16.864Z,8.70
2019-04-10T02:47:47.680Z,9.10
2019-04-10T02:50:21.884Z,9.20
2019-04-10T02:52:54.938Z,8.63
2019-04-10T02:55:27.191Z,8.97
2019-04-10T02:58:00.735Z,9.17
2019-04-10T03:00:33.671Z,8.63
2019-04-10T03:03:05.601Z,10.47
2019-04-10T03:05:38.337Z,8.63
2019-04-10T03:08:11.272Z,9.13
2019-04-10T03:10:49.562Z,13.10
2019-04-10T03:13:15.444Z,8.37
2019-04-10T03:15:49.694Z,8.10
2019-04-10T03:18:21.049Z,8.40
2019-04-10T03:20:52.681Z,8.67
2019-04-10T03:23:25.175Z,10.10
2019-04-10T03:25:57.294Z,13.10
2019-04-10T03:28:29.236Z,11.90
2019-04-10T03:31:02.521Z,14.73
2019-04-10T03:33:37.730Z,15.27
2019-04-10T03:36:09.482Z,13.00
2019-04-10T03:38:54.545Z,12.30
2019-04-10T03:41:15.794Z,9.60
2019-04-10T03:43:46.908Z,8.73
2019-04-10T03:46:19.374Z,9.27
2019-04-10T03:48:51.512Z,7.70
2019-04-10T03:51:22.861Z,9.13
2019-04-10T03:53:54.276Z,9.37
2019-04-10T03:56:26.104Z,7.50
2019-04-10T03:58:57.853Z,8.10
2019-04-10T04:01:31.901Z,8.13
2019-04-10T04:04:04.971Z,6.47
2019-04-10T04:06:36.657Z,6.13
2019-04-10T04:09:11.654Z,8.00
2019-04-10T04:11:41.990Z,6.50
2019-04-10T04:14:14.437Z,6.00
2019-04-10T04:16:47.073Z,6.47
2019-04-10T04:19:19.130Z,6.03
2019-04-10T04:21:50.660Z,6.47
2019-04-10T04:24:24.981Z,6.37
2019-04-10T04:26:57.400Z,6.47
2019-04-10T04:29:30.305Z,8.50
2019-04-10T04:32:01.454Z,8.73
2019-04-10T04:34:32.818Z,12.57
2019-04-10T04:37:04.463Z,11.27
2019-04-10T04:39:37.298Z,10.17
2019-04-10T04:42:09.255Z,13.57
2019-04-10T04:44:40.711Z,24.57
2019-04-10T04:47:13.310Z,7.77
2019-04-10T04:49:46.737Z,23.03
2019-04-10T04:52:18.337Z,34.63
2019-04-10T04:54:49.827Z,13.10
2019-04-10T04:57:22.449Z,12.53
2019-04-10T04:59:57.709Z,11.77
2019-04-10T05:02:29.001Z,14.23
2019-04-10T05:05:00.432Z,10.07
2019-04-10T05:07:33.335Z,6.87
2019-04-10T05:10:07.195Z,7.60
2019-04-10T05:12:38.223Z,12.67
2019-04-10T05:15:10.920Z,44.40
2019-04-10T05:17:42.286Z,10.87
2019-04-10T05:20:14.771Z,18.27
2019-04-10T05:22:46.214Z,23.20
2019-04-10T05:25:18.794Z,7.87
2019-04-10T05:27:51.098Z,6.80
2019-04-10T05:30:22.453Z,5.57
2019-04-10T05:32:55.619Z,6.67
2019-04-10T05:35:27.776Z,7.87
2019-04-10T05:38:00.377Z,9.27
2019-04-10T05:40:33.279Z,7.80
2019-04-10T05:43:05.907Z,8.67
2019-04-10T05:45:37.997Z,7.60
2019-04-10T05:48:12.127Z,7.40
2019-04-10T05:50:53.135Z,7.97
2019-04-10T05:53:16.967Z,11.87
2019-04-10T05:55:49.347Z,11.17
2019-04-10T05:58:21.760Z,7.13
2019-04-10T06:00:53.423Z,8.67
2019-04-10T06:03:24.829Z,6.43
2019-04-10T06:05:59.596Z,6.50
2019-04-10T06:08:29.771Z,6.03
2019-04-10T06:11:01.314Z,5.43
2019-04-10T06:13:32.646Z,5.73
2019-04-10T06:16:05.653Z,5.30
2019-04-10T06:18:37.882Z,4.60
2019-04-10T06:21:10.412Z,5.47
2019-04-10T06:23:43.443Z,5.73
2019-04-10T06:26:16.575Z,5.67
2019-04-10T06:28:48.536Z,6.17
2019-04-10T06:31:20.748Z,5.43
2019-04-10T06:33:52.820Z,4.93
2019-04-10T06:36:25.082Z,5.73
2019-04-10T06:38:57.016Z,6.43
2019-04-10T06:41:28.436Z,5.93
2019-04-10T06:43:59.822Z,4.63
2019-04-10T06:46:31.171Z,5.30
2019-04-10T06:49:03.114Z,6.83
2019-04-10T06:51:35.510Z,6.20
2019-04-10T06:54:11.036Z,5.80
2019-04-10T06:56:41.052Z,5.20
2019-04-10T06:59:12.613Z,5.33
2019-04-10T07:01:49.573Z,4.87
2019-04-10T07:04:18.143Z,5.33
2019-04-10T07:06:58.097Z,4.77
2019-04-10T07:09:26.221Z,5.03
2019-04-10T07:12:00.194Z,4.40
2019-04-10T07:14:32.412Z,5.13
2019-04-10T07:17:06.988Z,6.47
2019-04-10T07:19:37.540Z,5.50
2019-04-10T07:22:12.458Z,5.30
2019-04-10T07:24:42.553Z,4.33
2019-04-10T07:27:14.245Z,4.37
2019-04-10T07:29:50.647Z,4.77
2019-04-10T07:32:19.441Z,4.27
2019-04-10T07:34:50.875Z,4.30
2019-04-10T07:37:24.055Z,7.13
2019-04-10T07:39:55.271Z,6.37
2019-04-10T07:42:33.853Z,4.70
2019-04-10T07:44:59.860Z,8.37
2019-04-10T07:47:31.625Z,4.73
2019-04-10T07:50:04.782Z,5.93
2019-04-10T07:52:37.171Z,5.23
2019-04-10T07:55:08.859Z,3.73
2019-04-10T07:57:40.866Z,5.20
2019-04-10T08:00:16.025Z,4.80
2019-04-10T08:02:49.154Z,4.63
2019-04-10T08:05:22.955Z,20.43
2019-04-10T08:07:56.462Z,5.33
2019-04-10T08:10:30.681Z,4.93
2019-04-10T08:13:04.651Z,4.53
2019-04-10T08:15:37.801Z,6.97
2019-04-10T08:18:10.028Z,5.53
2019-04-10T08:20:42.478Z,4.20
2019-04-10T08:23:14.861Z,4.53
2019-04-10T08:25:47.479Z,4.40
2019-04-10T08:28:19.841Z,5.73
2019-04-10T08:30:52.525Z,5.07
2019-04-10T08:33:23.533Z,4.27
2019-04-10T08:35:55.099Z,5.90
2019-04-10T08:38:27.949Z,5.13
2019-04-10T08:41:06.054Z,5.20
2019-04-10T08:43:38.274Z,5.10
2019-04-10T08:46:09.380Z,4.80
2019-04-10T08:48:45.534Z,4.37
2019-04-10T08:51:17.148Z,5.00
2019-04-10T08:53:48.863Z,4.60
2019-04-10T08:56:20.474Z,4.47
2019-04-10T08:58:52.747Z,4.60
2019-04-10T09:01:25.151Z,5.50
2019-04-10T09:04:01.405Z,4.90
2019-04-10T09:06:41.801Z,5.00
2019-04-10T09:09:13.948Z,7.67
2019-04-10T09:11:51.619Z,9.03
2019-04-10T09:14:33.001Z,5.50
2019-04-10T09:17:09.022Z,9.43
2019-04-10T09:19:40.715Z,5.43
2019-04-10T09:22:12.067Z,4.83
2019-04-10T09:24:44.616Z,7.83
2019-04-10T09:27:19.219Z,4.70
2019-04-10T09:29:57.451Z,4.93
2019-04-10T09:32:32.595Z,7.10
2019-04-10T09:35:08.711Z,5.10
2019-04-10T09:37:42.127Z,5.23
2019-04-10T09:40:16.507Z,5.07
2019-04-10T09:42:52.850Z,5.60
2019-04-10T09:45:30.767Z,5.87
2019-04-10T09:48:04.195Z,4.87
2019-04-10T09:50:39.649Z,5.17
2019-04-10T09:53:12.802Z,6.00
2019-04-10T09:55:47.108Z,6.23
2019-04-10T09:58:21.797Z,5.13
2019-04-10T10:00:58.537Z,5.83
2019-04-10T10:03:34.877Z,5.97
2019-04-10T10:06:07.028Z,5.10
2019-04-10T10:08:47.903Z,5.63
2019-04-10T10:11:24.344Z,5.33
2019-04-10T10:13:56.410Z,5.17
2019-04-10T10:16:32.381Z,5.13
2019-04-10T10:19:05.840Z,5.17
2019-04-10T10:21:38.837Z,5.83
2019-04-10T10:24:10.918Z,5.97
2019-04-10T10:26:46.515Z,5.03
2019-04-10T10:29:17.656Z,6.13
2019-04-10T10:31:52.187Z,5.70
2019-04-10T10:34:22.775Z,5.80
2019-04-10T10:36:53.628Z,5.13
2019-04-10T10:39:31.742Z,6.70
2019-04-10T10:42:03.907Z,4.97
2019-04-10T10:44:36.290Z,5.85
2019-04-10T10:47:08.388Z,5.53
2019-04-10T10:49:40.535Z,4.77
2019-04-10T10:52:21.913Z,7.30
2019-04-10T10:54:56.943Z,5.40
2019-04-10T10:57:35.860Z,4.75
2019-04-10T11:00:13.073Z,5.37
2019-04-10T11:02:45.556Z,5.50
2019-04-10T11:05:17.117Z,5.00
2019-04-10T11:07:48.979Z,4.63
2019-04-10T11:10:25.445Z,5.07
2019-04-10T11:12:55.351Z,4.90
2019-04-10T11:15:28.994Z,4.60
2019-04-10T11:18:02.056Z,6.80
2019-04-10T11:20:36.355Z,5.03
2019-04-10T11:23:12.065Z,5.07
2019-04-10T11:25:44.327Z,6.07
2019-04-10T11:28:16.310Z,4.93
2019-04-10T11:30:48.163Z,5.43
2019-04-10T11:33:20.661Z,5.53
2019-04-10T11:35:53.428Z,8.50
2019-04-10T11:38:26.175Z,4.80
2019-04-10T11:41:00.065Z,5.40
2019-04-10T11:43:33.457Z,6.27
2019-04-10T11:46:04.693Z,6.30
2019-04-10T11:48:36.620Z,5.50
2019-04-10T11:51:10.106Z,5.30
2019-04-10T11:53:44.513Z,8.13
2019-04-10T11:56:13.743Z,9.47
2019-04-10T11:58:53.789Z,6.10
2019-04-10T12:01:21.149Z,5.33
2019-04-10T12:03:54.372Z,6.25
2019-04-10T12:06:25.338Z,6.17
2019-04-10T12:09:26.382Z,5.90
2019-04-10T12:11:31.757Z,5.25
2019-04-10T12:14:03.044Z,6.75
2019-04-10T12:16:37.519Z,6.78
2019-04-10T12:19:09.679Z,5.75
2019-04-10T12:21:42.116Z,5.97
2019-04-10T12:24:14.097Z,5.40
2019-04-10T12:26:46.000Z,6.10
2019-04-10T12:29:18.368Z,6.20
2019-04-10T12:32:00.792Z,5.80
2019-04-10T12:34:36.187Z,6.20
2019-04-10T12:37:07.714Z,6.50
2019-04-10T12:39:39.296Z,6.20
2019-04-10T12:42:10.864Z,6.42
2019-04-10T12:44:42.782Z,6.15
2019-04-10T12:47:15.448Z,5.07
2019-04-10T12:49:48.090Z,5.20
2019-04-10T12:52:20.630Z,5.70
2019-04-10T12:54:53.231Z,5.15
2019-04-10T12:57:24.866Z,5.08
2019-04-10T13:00:01.506Z,5.03
2019-04-10T13:02:28.698Z,6.10
2019-04-10T13:05:00.856Z,5.57
2019-04-10T13:07:33.567Z,5.58
2019-04-10T13:10:08.727Z,4.80
2019-04-10T13:12:39.980Z,5.85
2019-04-10T13:15:13.113Z,5.97
2019-04-10T13:17:44.900Z,5.97
2019-04-10T13:20:17.664Z,6.28
2019-04-10T13:22:50.567Z,5.95
2019-04-10T13:25:22.033Z,6.03
2019-04-10T13:27:53.434Z,6.70
2019-04-10T13:30:25.114Z,6.30
2019-04-10T13:32:58.333Z,6.67
2019-04-10T13:35:30.302Z,5.83
2019-04-10T13:38:03.205Z,7.63
2019-04-10T13:40:35.275Z,15.72
2019-04-10T13:43:07.273Z,8.10
2019-04-10T13:45:39.412Z,8.77
2019-04-10T13:48:13.004Z,6.62
2019-04-10T13:50:44.162Z,6.17
2019-04-10T13:53:15.527Z,6.83
2019-04-10T13:55:47.072Z,7.35
2019-04-10T13:58:21.164Z,6.77
2019-04-10T14:00:53.592Z,7.17
2019-04-10T14:03:30.418Z,17.35
2019-04-10T14:06:07.418Z,11.18
2019-04-10T14:08:58.609Z,7.07
2019-04-10T14:11:13.178Z,6.92
2019-04-10T14:13:44.850Z,6.25
2019-04-10T14:16:16.960Z,7.05
2019-04-10T14:18:52.898Z,6.17
2019-04-10T14:21:24.873Z,6.83
2019-04-10T14:23:57.676Z,7.53
2019-04-10T14:26:46.734Z,7.33
2019-04-10T14:29:15.015Z,7.85
2019-04-10T14:31:48.940Z,6.35
2019-04-10T14:34:21.312Z,6.83
2019-04-10T14:36:52.816Z,6.65
2019-04-10T14:39:25.413Z,7.22
2019-04-10T14:41:56.614Z,7.22
2019-04-10T14:44:28.523Z,7.17
2019-04-10T14:47:00.238Z,6.40
2019-04-10T14:49:31.988Z,7.25
2019-04-10T14:52:03.464Z,7.72
2019-04-10T14:54:35.691Z,7.83
2019-04-10T14:57:07.445Z,8.13
2019-04-10T14:59:40.008Z,9.80
2019-04-10T15:02:30.726Z,8.90
2019-04-10T15:05:08.158Z,6.97
2019-04-10T15:07:39.938Z,6.50
2019-04-10T15:10:12.016Z,7.42
2019-04-10T15:12:44.054Z,9.80
2019-04-10T15:15:41.016Z,7.67
2019-04-10T15:18:45.909Z,16.32
2019-04-10T15:21:47.579Z,8.28
2019-04-10T15:24:55.879Z,7.80
2019-04-10T15:35:10.462Z,7.57
2019-04-10T15:37:49.269Z,6.80
2019-04-10T15:40:25.798Z,7.07
2019-04-10T15:43:03.655Z,7.03
2019-04-10T15:45:35.920Z,7.57
2019-04-10T15:48:08.396Z,9.43
2019-04-10T15:50:39.649Z,9.18
2019-04-10T15:53:11.742Z,7.90
2019-04-10T15:55:43.680Z,9.03
2019-04-10T15:58:17.302Z,10.90
2019-04-10T16:00:50.236Z,9.10
2019-04-10T16:03:21.871Z,11.63
2019-04-10T16:05:53.569Z,7.90
2019-04-10T16:08:28.136Z,8.30
2019-04-10T16:11:02.096Z,9.20
2019-04-10T16:13:36.644Z,48.83
2019-04-10T16:16:10.072Z,11.70
2019-04-10T16:18:41.873Z,14.57
2019-04-10T16:21:13.040Z,23.03
2019-04-10T16:23:46.146Z,9.47
2019-04-10T16:26:18.799Z,13.60
2019-04-10T16:28:51.587Z,11.13
2019-04-10T16:31:23.542Z,12.93
2019-04-10T16:33:55.366Z,15.90
2019-04-10T16:36:27.927Z,11.03
2019-04-10T16:38:59.513Z,11.97
2019-04-10T16:41:31.223Z,12.97
2019-04-10T16:44:02.807Z,10.50
2019-04-10T16:46:34.525Z,19.73
2019-04-10T16:49:06.566Z,13.33
2019-04-10T16:51:48.275Z,12.27
2019-04-10T16:54:22.280Z,9.07
2019-04-10T16:56:54.148Z,21.20
2019-04-10T16:59:29.942Z,9.93
2019-04-10T17:02:01.836Z,13.73
2019-04-10T17:04:36.057Z,19.67
2019-04-10T17:07:08.568Z,27.73
2019-04-10T17:09:45.478Z,31.63
2019-04-10T17:12:17.784Z,15.93
2019-04-10T17:14:53.385Z,13.07
2019-04-10T17:17:28.895Z,17.87
2019-04-10T17:20:08.569Z,14.27
2019-04-10T17:22:45.337Z,24.17
2019-04-10T17:25:14.223Z,12.13
2019-04-10T17:27:45.929Z,13.40
2019-04-10T17:30:19.713Z,15.17
2019-04-10T17:32:52.168Z,10.03
2019-04-10T17:35:24.616Z,15.47
2019-04-10T17:37:56.666Z,18.47
2019-04-10T17:40:36.700Z,15.23
2019-04-10T17:43:05.177Z,14.10
2019-04-10T17:45:38.425Z,10.37
2019-04-10T17:48:11.654Z,10.37
2019-04-10T17:50:43.720Z,12.57
2019-04-10T17:53:16.567Z,13.90
2019-04-10T17:55:48.014Z,13.30
2019-04-10T17:58:19.177Z,14.10
2019-04-10T18:00:52.138Z,12.70
2019-04-10T18:03:23.523Z,12.77
2019-04-10T18:05:55.174Z,13.07
2019-04-10T18:08:27.110Z,12.03
2019-04-10T18:11:00.269Z,11.53
2019-04-10T18:13:31.532Z,11.50
2019-04-10T18:16:02.752Z,10.50
2019-04-10T18:18:33.590Z,10.77
2019-04-10T18:21:04.965Z,10.20
2019-04-10T18:23:36.029Z,10.83
2019-04-10T18:26:08.685Z,12.87
2019-04-10T18:28:39.484Z,11.30
2019-04-10T18:31:10.469Z,11.77
2019-04-10T18:33:41.375Z,12.67
2019-04-10T18:36:13.325Z,12.30
2019-04-10T18:38:44.493Z,12.10
2019-04-10T18:41:15.779Z,12.27
2019-04-10T18:43:46.749Z,12.67
2019-04-10T18:46:19.491Z,13.27
2019-04-10T18:48:51.285Z,13.20
2019-04-10T18:51:23.488Z,13.00
2019-04-10T18:53:54.829Z,15.50
2019-04-10T18:56:25.482Z,17.13
2019-04-10T18:58:58.415Z,21.13
2019-04-10T19:01:31.394Z,26.60
2019-04-10T19:04:05.822Z,29.23
2019-04-10T19:06:38.593Z,31.77
2019-04-10T19:09:18.490Z,31.23
2019-04-10T19:11:44.204Z,32.97
2019-04-10T19:14:18.445Z,29.73
2019-04-10T19:16:49.862Z,29.87
2019-04-10T19:19:20.937Z,33.77
2019-04-10T19:21:53.778Z,37.57
2019-04-10T19:24:25.965Z,51.80
2019-04-10T19:26:57.889Z,54.37
2019-04-10T19:29:30.283Z,55.60
2019-04-10T19:32:03.748Z,52.87
2019-04-10T19:34:35.197Z,50.63
2019-04-10T19:37:06.368Z,42.60
2019-04-10T19:39:38.290Z,40.63
2019-04-10T19:42:11.193Z,46.37
2019-04-10T19:44:47.632Z,45.17
2019-04-10T19:47:22.082Z,36.53
2019-04-10T19:49:55.105Z,30.47
2019-04-10T19:52:27.080Z,29.93
2019-04-10T19:54:58.162Z,26.43
2019-04-10T19:57:35.608Z,26.87
2019-04-10T20:00:12.721Z,29.13
2019-04-10T20:02:43.684Z,31.37
2019-04-10T20:05:18.078Z,27.47
2019-04-10T20:07:51.402Z,25.17
2019-04-10T20:10:23.449Z,25.23
2019-04-10T20:12:59.251Z,27.13
2019-04-10T20:15:31.632Z,29.67
2019-04-10T20:18:04.428Z,30.63
2019-04-10T20:20:39.518Z,33.80
2019-04-10T20:23:14.191Z,38.83
2019-04-10T20:25:48.389Z,38.90
2019-04-10T20:28:21.210Z,37.30
2019-04-10T20:31:04.820Z,44.93
2019-04-10T20:33:38.780Z,56.00
2019-04-10T20:36:13.026Z,61.53
2019-04-10T20:38:45.574Z,71.37
2019-04-10T20:41:18.235Z,66.10
2019-04-10T20:43:51.153Z,62.87
2019-04-10T20:46:24.246Z,65.80
2019-04-10T20:48:55.382Z,71.23
2019-04-10T20:51:31.101Z,88.10
2019-04-10T20:54:02.782Z,98.80
2019-04-10T20:56:35.541Z,101.37
2019-04-10T20:59:09.978Z,81.50
2019-04-10T21:01:45.350Z,79.43
2019-04-10T21:04:19.312Z,71.50
2019-04-10T21:06:56.503Z,68.07
2019-04-10T21:09:29.771Z,57.00
2019-04-10T21:12:09.568Z,52.73
2019-04-10T21:14:36.471Z,43.90
2019-04-10T21:17:08.792Z,39.43
2019-04-10T21:19:40.965Z,40.17
2019-04-10T21:22:13.818Z,37.50
2019-04-10T21:24:46.099Z,33.70
2019-04-10T21:27:18.589Z,33.50
2019-04-10T21:29:52.704Z,32.47
2019-04-10T21:32:26.161Z,34.00
2019-04-10T21:35:02.081Z,33.50
2019-04-10T21:37:34.672Z,32.80
2019-04-10T21:40:10.306Z,32.80
2019-04-10T21:42:44.129Z,36.97
2019-04-10T21:45:16.514Z,37.80
2019-04-10T21:47:48.257Z,43.13
2019-04-10T21:50:21.495Z,46.63
2019-04-10T21:52:59.643Z,44.77
2019-04-10T21:55:32.135Z,46.17
2019-04-10T21:58:06.087Z,48.07
2019-04-10T22:00:38.829Z,53.53
2019-04-10T22:03:11.828Z,60.60
2019-04-10T22:05:44.731Z,47.70
2019-04-10T22:08:17.340Z,39.60
2019-04-10T22:10:50.347Z,43.63
2019-04-10T22:13:21.966Z,46.03
2019-04-10T22:15:53.433Z,44.17
2019-04-10T22:18:27.479Z,44.83
2019-04-10T22:21:00.425Z,42.73
2019-04-10T22:23:34.315Z,43.00
2019-04-10T22:26:07.884Z,41.83
2019-04-10T22:28:39.846Z,39.27
2019-04-10T22:31:11.646Z,40.83
2019-04-10T22:33:43.300Z,42.50
2019-04-10T22:36:15.047Z,42.93
2019-04-10T22:38:46.221Z,46.70
2019-04-10T22:41:25.337Z,48.17
2019-04-10T22:43:50.425Z,48.80
2019-04-10T22:46:25.817Z,53.83
2019-04-10T22:48:57.784Z,53.57
2019-04-10T22:51:29.521Z,60.27
2019-04-10T22:54:00.241Z,64.77
2019-04-10T22:56:31.919Z,57.73
2019-04-10T22:59:03.983Z,53.77
2019-04-10T23:01:39.789Z,47.77
2019-04-10T23:04:12.234Z,39.53
2019-04-10T23:06:44.999Z,31.33
2019-04-10T23:09:16.473Z,30.83
2019-04-10T23:11:47.748Z,39.03
2019-04-10T23:14:18.942Z,41.63
2019-04-10T23:16:50.491Z,39.70
2019-04-10T23:19:22.399Z,41.13
2019-04-10T23:21:54.633Z,35.80
2019-04-10T23:24:27.622Z,33.33
2019-04-10T23:27:01.745Z,32.07
2019-04-10T23:29:32.733Z,34.00
2019-04-10T23:32:07.294Z,33.37
2019-04-10T23:34:38.955Z,34.40
2019-04-10T23:37:10.905Z,35.93
2019-04-10T23:39:46.167Z,40.07
2019-04-10T23:42:17.563Z,39.40
2019-04-10T23:44:49.241Z,39.03
2019-04-10T23:47:22.107Z,38.53
2019-04-10T23:49:54.075Z,38.67
2019-04-10T23:52:25.543Z,42.63
2019-04-10T23:54:57.592Z,37.23
2019-04-10T23:57:29.505Z,33.37
